Orient, Maine
Current Conditions -  °F | °C
As of 1:53 AM on Friday 28 Nov 2014 (Local Time) from KHUL Reporting Station
Clear Clear  
Wind Chill:   Ceiling: Unl
Heat Index:   Visibility: 10mi
Dew Point:   Wind: 0mph
Humidity: 83%   Direction: NA
Pressure: 29.99"   Gusts: NA
Location:  45.82°N, 67.84°W
Report Text: KHUL 280653Z AUTO 00000KT 10SM CLR M14/M17 A2999 RMK AO2 SLP167 I1000 T11441167
Loading
Personal Weather Stations






























Interactive Weather Map New forecast layout! Learn more

10-Day Weather Forecast

Advertisements
Track Severe Weather on mobile